sensor_id;sensor_type;location;lat;lon;timestamp;P1;durP1;ratioP1;P2;durP2;ratioP2
4377;SDS011;2203;53.686;9.994;2023-05-07T00:01:14;12.63;;;9.40;;
4377;SDS011;2203;53.686;9.994;2023-05-07T00:03:40;21.60;;;9.83;;
4377;SDS011;2203;53.686;9.994;2023-05-07T00:06:06;19.30;;;8.80;;
4377;SDS011;2203;53.686;9.994;2023-05-07T00:08:32;15.67;;;9.27;;
4377;SDS011;2203;53.686;9.994;2023-05-07T00:10:57;18.43;;;9.73;;
4377;SDS011;2203;53.686;9.994;2023-05-07T00:13:23;14.93;;;9.83;;
4377;SDS011;2203;53.686;9.994;2023-05-07T00:15:48;15.50;;;9.30;;
4377;SDS011;2203;53.686;9.994;2023-05-07T00:18:13;14.13;;;9.40;;
4377;SDS011;2203;53.686;9.994;2023-05-07T00:20:39;16.83;;;9.40;;
4377;SDS011;2203;53.686;9.994;2023-05-07T00:23:04;13.73;;;9.33;;
4377;SDS011;2203;53.686;9.994;2023-05-07T00:25:30;15.53;;;9.53;;
4377;SDS011;2203;53.686;9.994;2023-05-07T00:27:55;14.73;;;9.47;;
4377;SDS011;2203;53.686;9.994;2023-05-07T00:30:22;13.87;;;9.43;;
4377;SDS011;2203;53.686;9.994;2023-05-07T00:32:47;11.70;;;8.47;;
4377;SDS011;2203;53.686;9.994;2023-05-07T00:35:14;16.10;;;9.70;;
4377;SDS011;2203;53.686;9.994;2023-05-07T00:37:39;16.23;;;10.03;;
4377;SDS011;2203;53.686;9.994;2023-05-07T00:40:05;18.57;;;10.47;;
4377;SDS011;2203;53.686;9.994;2023-05-07T00:42:32;16.17;;;9.20;;
4377;SDS011;2203;53.686;9.994;2023-05-07T00:44:58;18.93;;;10.17;;
4377;SDS011;2203;53.686;9.994;2023-05-07T00:47:23;15.83;;;9.40;;
4377;SDS011;2203;53.686;9.994;2023-05-07T00:49:50;16.23;;;10.23;;
4377;SDS011;2203;53.686;9.994;2023-05-07T00:52:16;14.30;;;9.40;;
4377;SDS011;2203;53.686;9.994;2023-05-07T00:54:42;19.90;;;10.40;;
4377;SDS011;2203;53.686;9.994;2023-05-07T00:57:09;20.80;;;10.57;;
4377;SDS011;2203;53.686;9.994;2023-05-07T00:59:36;16.30;;;9.07;;
4377;SDS011;2203;53.686;9.994;2023-05-07T01:02:02;21.80;;;10.70;;
4377;SDS011;2203;53.686;9.994;2023-05-07T01:04:27;19.80;;;10.70;;
4377;SDS011;2203;53.686;9.994;2023-05-07T01:06:53;18.70;;;9.40;;
4377;SDS011;2203;53.686;9.994;2023-05-07T01:09:21;16.23;;;9.87;;
4377;SDS011;2203;53.686;9.994;2023-05-07T01:11:47;16.17;;;9.77;;
4377;SDS011;2203;53.686;9.994;2023-05-07T01:14:14;22.80;;;9.43;;
4377;SDS011;2203;53.686;9.994;2023-05-07T01:16:40;16.43;;;10.50;;
4377;SDS011;2203;53.686;9.994;2023-05-07T01:19:07;15.50;;;9.70;;
4377;SDS011;2203;53.686;9.994;2023-05-07T01:21:33;16.80;;;10.03;;
4377;SDS011;2203;53.686;9.994;2023-05-07T01:24:02;15.73;;;10.20;;
4377;SDS011;2203;53.686;9.994;2023-05-07T01:26:27;16.90;;;9.57;;
4377;SDS011;2203;53.686;9.994;2023-05-07T01:28:53;13.47;;;9.10;;
4377;SDS011;2203;53.686;9.994;2023-05-07T01:31:18;14.50;;;8.90;;
4377;SDS011;2203;53.686;9.994;2023-05-07T01:33:44;16.43;;;9.37;;
4377;SDS011;2203;53.686;9.994;2023-05-07T01:36:10;14.17;;;8.70;;
4377;SDS011;2203;53.686;9.994;2023-05-07T01:38:36;15.60;;;9.03;;
4377;SDS011;2203;53.686;9.994;2023-05-07T01:41:02;16.70;;;9.33;;
4377;SDS011;2203;53.686;9.994;2023-05-07T01:43:28;20.83;;;10.60;;
4377;SDS011;2203;53.686;9.994;2023-05-07T01:45:55;14.67;;;8.80;;
4377;SDS011;2203;53.686;9.994;2023-05-07T01:48:21;13.30;;;9.20;;
4377;SDS011;2203;53.686;9.994;2023-05-07T01:50:46;14.03;;;9.00;;
4377;SDS011;2203;53.686;9.994;2023-05-07T01:53:12;13.70;;;7.97;;
4377;SDS011;2203;53.686;9.994;2023-05-07T01:55:38;14.43;;;8.10;;
4377;SDS011;2203;53.686;9.994;2023-05-07T01:58:03;14.00;;;8.70;;
4377;SDS011;2203;53.686;9.994;2023-05-07T02:00:29;15.23;;;8.13;;
4377;SDS011;2203;53.686;9.994;2023-05-07T02:02:54;11.83;;;7.57;;
4377;SDS011;2203;53.686;9.994;2023-05-07T02:05:20;12.57;;;7.03;;
4377;SDS011;2203;53.686;9.994;2023-05-07T02:07:45;14.20;;;8.67;;
4377;SDS011;2203;53.686;9.994;2023-05-07T02:10:11;13.60;;;8.00;;
4377;SDS011;2203;53.686;9.994;2023-05-07T02:12:36;10.53;;;7.30;;
4377;SDS011;2203;53.686;9.994;2023-05-07T02:15:02;10.10;;;6.60;;
4377;SDS011;2203;53.686;9.994;2023-05-07T02:17:27;12.93;;;7.23;;
4377;SDS011;2203;53.686;9.994;2023-05-07T02:19:56;12.13;;;8.67;;
4377;SDS011;2203;53.686;9.994;2023-05-07T02:22:22;9.67;;;7.07;;
4377;SDS011;2203;53.686;9.994;2023-05-07T02:24:47;11.43;;;7.20;;
4377;SDS011;2203;53.686;9.994;2023-05-07T02:27:12;13.30;;;7.60;;
4377;SDS011;2203;53.686;9.994;2023-05-07T02:29:38;13.80;;;7.30;;
4377;SDS011;2203;53.686;9.994;2023-05-07T02:32:03;12.97;;;7.80;;
4377;SDS011;2203;53.686;9.994;2023-05-07T02:34:29;12.43;;;7.50;;
4377;SDS011;2203;53.686;9.994;2023-05-07T02:36:54;16.70;;;8.37;;
4377;SDS011;2203;53.686;9.994;2023-05-07T02:39:20;13.20;;;8.33;;
4377;SDS011;2203;53.686;9.994;2023-05-07T02:41:46;13.90;;;7.83;;
4377;SDS011;2203;53.686;9.994;2023-05-07T02:44:11;12.83;;;8.67;;
4377;SDS011;2203;53.686;9.994;2023-05-07T02:46:36;18.77;;;9.30;;
4377;SDS011;2203;53.686;9.994;2023-05-07T02:49:02;13.80;;;8.87;;
4377;SDS011;2203;53.686;9.994;2023-05-07T02:51:27;14.73;;;8.97;;
4377;SDS011;2203;53.686;9.994;2023-05-07T02:53:52;15.03;;;8.40;;
4377;SDS011;2203;53.686;9.994;2023-05-07T02:56:18;11.13;;;7.40;;
4377;SDS011;2203;53.686;9.994;2023-05-07T02:58:43;13.37;;;8.23;;
4377;SDS011;2203;53.686;9.994;2023-05-07T03:01:08;17.80;;;8.80;;
4377;SDS011;2203;53.686;9.994;2023-05-07T03:03:34;13.33;;;8.07;;
4377;SDS011;2203;53.686;9.994;2023-05-07T03:06:00;11.33;;;7.37;;
4377;SDS011;2203;53.686;9.994;2023-05-07T03:08:26;14.20;;;7.97;;
4377;SDS011;2203;53.686;9.994;2023-05-07T03:10:51;13.77;;;8.17;;
4377;SDS011;2203;53.686;9.994;2023-05-07T03:13:17;15.97;;;9.30;;
4377;SDS011;2203;53.686;9.994;2023-05-07T03:15:42;13.20;;;7.37;;
4377;SDS011;2203;53.686;9.994;2023-05-07T03:18:08;14.70;;;8.83;;
4377;SDS011;2203;53.686;9.994;2023-05-07T03:20:33;12.67;;;8.30;;
4377;SDS011;2203;53.686;9.994;2023-05-07T03:22:59;14.03;;;8.97;;
4377;SDS011;2203;53.686;9.994;2023-05-07T03:25:24;13.43;;;8.87;;
4377;SDS011;2203;53.686;9.994;2023-05-07T03:27:50;12.50;;;8.20;;
4377;SDS011;2203;53.686;9.994;2023-05-07T03:30:15;13.90;;;8.23;;
4377;SDS011;2203;53.686;9.994;2023-05-07T03:32:40;13.27;;;8.83;;
4377;SDS011;2203;53.686;9.994;2023-05-07T03:35:06;16.90;;;8.10;;
4377;SDS011;2203;53.686;9.994;2023-05-07T03:37:32;14.63;;;8.43;;
4377;SDS011;2203;53.686;9.994;2023-05-07T03:39:57;17.97;;;9.03;;
4377;SDS011;2203;53.686;9.994;2023-05-07T03:42:23;14.90;;;9.17;;
4377;SDS011;2203;53.686;9.994;2023-05-07T03:44:48;13.77;;;8.93;;
4377;SDS011;2203;53.686;9.994;2023-05-07T03:47:14;15.83;;;8.87;;
4377;SDS011;2203;53.686;9.994;2023-05-07T03:49:39;11.87;;;7.90;;
4377;SDS011;2203;53.686;9.994;2023-05-07T03:52:05;13.50;;;8.73;;
4377;SDS011;2203;53.686;9.994;2023-05-07T03:54:31;13.27;;;8.80;;
4377;SDS011;2203;53.686;9.994;2023-05-07T03:56:56;26.37;;;9.63;;
4377;SDS011;2203;53.686;9.994;2023-05-07T03:59:22;13.80;;;8.63;;
4377;SDS011;2203;53.686;9.994;2023-05-07T04:01:47;11.63;;;7.43;;
4377;SDS011;2203;53.686;9.994;2023-05-07T04:04:13;12.87;;;8.50;;
4377;SDS011;2203;53.686;9.994;2023-05-07T04:06:39;13.20;;;8.27;;
4377;SDS011;2203;53.686;9.994;2023-05-07T04:09:05;15.70;;;8.17;;
4377;SDS011;2203;53.686;9.994;2023-05-07T04:11:31;17.33;;;8.00;;
4377;SDS011;2203;53.686;9.994;2023-05-07T04:13:56;13.93;;;8.43;;
4377;SDS011;2203;53.686;9.994;2023-05-07T04:16:22;21.67;;;8.30;;
4377;SDS011;2203;53.686;9.994;2023-05-07T04:18:47;15.77;;;8.93;;
4377;SDS011;2203;53.686;9.994;2023-05-07T04:21:16;12.67;;;8.40;;
4377;SDS011;2203;53.686;9.994;2023-05-07T04:23:43;14.53;;;8.10;;
4377;SDS011;2203;53.686;9.994;2023-05-07T04:26:08;11.63;;;7.57;;
4377;SDS011;2203;53.686;9.994;2023-05-07T04:28:34;11.70;;;7.50;;
4377;SDS011;2203;53.686;9.994;2023-05-07T04:31:00;12.70;;;7.93;;
4377;SDS011;2203;53.686;9.994;2023-05-07T04:33:25;13.50;;;7.50;;
4377;SDS011;2203;53.686;9.994;2023-05-07T04:35:50;14.33;;;8.70;;
4377;SDS011;2203;53.686;9.994;2023-05-07T04:38:16;13.47;;;8.03;;
4377;SDS011;2203;53.686;9.994;2023-05-07T04:40:43;16.43;;;7.30;;
4377;SDS011;2203;53.686;9.994;2023-05-07T04:43:09;10.90;;;7.63;;
4377;SDS011;2203;53.686;9.994;2023-05-07T04:45:35;13.70;;;6.73;;
4377;SDS011;2203;53.686;9.994;2023-05-07T04:48:01;15.50;;;8.20;;
4377;SDS011;2203;53.686;9.994;2023-05-07T04:50:26;12.70;;;9.27;;
4377;SDS011;2203;53.686;9.994;2023-05-07T04:52:51;13.67;;;7.90;;
4377;SDS011;2203;53.686;9.994;2023-05-07T04:55:17;13.63;;;7.93;;
4377;SDS011;2203;53.686;9.994;2023-05-07T04:57:42;12.60;;;7.73;;
4377;SDS011;2203;53.686;9.994;2023-05-07T05:00:08;11.60;;;7.80;;
4377;SDS011;2203;53.686;9.994;2023-05-07T05:02:34;12.47;;;7.10;;
4377;SDS011;2203;53.686;9.994;2023-05-07T05:05:00;12.60;;;7.30;;
4377;SDS011;2203;53.686;9.994;2023-05-07T05:07:27;13.33;;;6.93;;
4377;SDS011;2203;53.686;9.994;2023-05-07T05:09:53;12.30;;;7.30;;
4377;SDS011;2203;53.686;9.994;2023-05-07T05:12:18;14.20;;;7.93;;
4377;SDS011;2203;53.686;9.994;2023-05-07T05:14:44;13.50;;;7.70;;
4377;SDS011;2203;53.686;9.994;2023-05-07T05:17:09;12.50;;;8.27;;
4377;SDS011;2203;53.686;9.994;2023-05-07T05:19:35;13.20;;;7.50;;
4377;SDS011;2203;53.686;9.994;2023-05-07T05:22:00;10.33;;;6.50;;
4377;SDS011;2203;53.686;9.994;2023-05-07T05:24:26;10.03;;;6.83;;
4377;SDS011;2203;53.686;9.994;2023-05-07T05:26:53;15.43;;;6.73;;
4377;SDS011;2203;53.686;9.994;2023-05-07T05:29:18;10.83;;;6.83;;
4377;SDS011;2203;53.686;9.994;2023-05-07T05:31:44;10.57;;;6.43;;
4377;SDS011;2203;53.686;9.994;2023-05-07T05:34:09;11.37;;;6.87;;
4377;SDS011;2203;53.686;9.994;2023-05-07T05:36:35;11.10;;;6.80;;
4377;SDS011;2203;53.686;9.994;2023-05-07T05:39:00;9.57;;;6.73;;
4377;SDS011;2203;53.686;9.994;2023-05-07T05:41:25;12.37;;;7.63;;
4377;SDS011;2203;53.686;9.994;2023-05-07T05:43:51;10.73;;;7.27;;
4377;SDS011;2203;53.686;9.994;2023-05-07T05:46:16;12.57;;;7.03;;
4377;SDS011;2203;53.686;9.994;2023-05-07T05:48:41;11.80;;;7.03;;
4377;SDS011;2203;53.686;9.994;2023-05-07T05:51:07;12.33;;;6.67;;
4377;SDS011;2203;53.686;9.994;2023-05-07T05:53:32;11.23;;;6.90;;
4377;SDS011;2203;53.686;9.994;2023-05-07T05:55:58;12.73;;;7.23;;
4377;SDS011;2203;53.686;9.994;2023-05-07T05:58:24;10.40;;;6.77;;
4377;SDS011;2203;53.686;9.994;2023-05-07T06:00:49;10.23;;;6.80;;
4377;SDS011;2203;53.686;9.994;2023-05-07T06:03:17;11.30;;;7.00;;
4377;SDS011;2203;53.686;9.994;2023-05-07T06:05:42;8.83;;;6.27;;
4377;SDS011;2203;53.686;9.994;2023-05-07T06:08:08;8.70;;;6.20;;
4377;SDS011;2203;53.686;9.994;2023-05-07T06:10:33;9.57;;;6.13;;
4377;SDS011;2203;53.686;9.994;2023-05-07T06:13:01;10.73;;;6.37;;
4377;SDS011;2203;53.686;9.994;2023-05-07T06:15:26;11.23;;;7.10;;
4377;SDS011;2203;53.686;9.994;2023-05-07T06:17:52;9.73;;;6.33;;
4377;SDS011;2203;53.686;9.994;2023-05-07T06:20:18;11.57;;;6.97;;
4377;SDS011;2203;53.686;9.994;2023-05-07T06:22:43;9.73;;;6.40;;
4377;SDS011;2203;53.686;9.994;2023-05-07T06:25:09;9.87;;;6.33;;
4377;SDS011;2203;53.686;9.994;2023-05-07T06:27:34;10.40;;;6.10;;
4377;SDS011;2203;53.686;9.994;2023-05-07T06:29:59;9.03;;;6.20;;
4377;SDS011;2203;53.686;9.994;2023-05-07T06:32:25;12.70;;;7.90;;
4377;SDS011;2203;53.686;9.994;2023-05-07T06:34:50;10.33;;;6.87;;
4377;SDS011;2203;53.686;9.994;2023-05-07T06:37:16;9.43;;;6.50;;
4377;SDS011;2203;53.686;9.994;2023-05-07T06:39:41;9.67;;;6.20;;
4377;SDS011;2203;53.686;9.994;2023-05-07T06:42:07;12.00;;;6.80;;
4377;SDS011;2203;53.686;9.994;2023-05-07T06:44:32;9.10;;;5.60;;
4377;SDS011;2203;53.686;9.994;2023-05-07T06:46:57;9.33;;;5.90;;
4377;SDS011;2203;53.686;9.994;2023-05-07T06:49:23;11.63;;;7.37;;
4377;SDS011;2203;53.686;9.994;2023-05-07T06:51:49;7.90;;;5.87;;
4377;SDS011;2203;53.686;9.994;2023-05-07T06:54:14;11.87;;;5.70;;
4377;SDS011;2203;53.686;9.994;2023-05-07T06:56:40;8.63;;;5.80;;
4377;SDS011;2203;53.686;9.994;2023-05-07T06:59:05;8.60;;;5.90;;
4377;SDS011;2203;53.686;9.994;2023-05-07T07:01:31;13.80;;;6.23;;
4377;SDS011;2203;53.686;9.994;2023-05-07T07:03:57;10.70;;;7.07;;
4377;SDS011;2203;53.686;9.994;2023-05-07T07:06:22;10.83;;;6.00;;
4377;SDS011;2203;53.686;9.994;2023-05-07T07:08:48;8.20;;;5.70;;
4377;SDS011;2203;53.686;9.994;2023-05-07T07:11:13;7.53;;;4.73;;
4377;SDS011;2203;53.686;9.994;2023-05-07T07:13:38;10.00;;;6.27;;
4377;SDS011;2203;53.686;9.994;2023-05-07T07:16:05;8.17;;;5.50;;
4377;SDS011;2203;53.686;9.994;2023-05-07T07:18:30;9.53;;;5.50;;
4377;SDS011;2203;53.686;9.994;2023-05-07T07:20:56;8.50;;;5.87;;
4377;SDS011;2203;53.686;9.994;2023-05-07T07:23:21;7.10;;;5.47;;
4377;SDS011;2203;53.686;9.994;2023-05-07T07:25:47;7.50;;;5.30;;
4377;SDS011;2203;53.686;9.994;2023-05-07T07:28:12;7.93;;;5.73;;
4377;SDS011;2203;53.686;9.994;2023-05-07T07:30:38;11.00;;;5.33;;
4377;SDS011;2203;53.686;9.994;2023-05-07T07:33:04;10.80;;;4.93;;
4377;SDS011;2203;53.686;9.994;2023-05-07T07:35:30;10.53;;;5.63;;
4377;SDS011;2203;53.686;9.994;2023-05-07T07:37:59;8.70;;;5.50;;
4377;SDS011;2203;53.686;9.994;2023-05-07T07:40:24;8.87;;;5.50;;
4377;SDS011;2203;53.686;9.994;2023-05-07T07:42:50;8.57;;;5.30;;
4377;SDS011;2203;53.686;9.994;2023-05-07T07:45:16;9.37;;;4.70;;
4377;SDS011;2203;53.686;9.994;2023-05-07T07:47:41;9.50;;;5.60;;
4377;SDS011;2203;53.686;9.994;2023-05-07T07:50:07;9.23;;;6.00;;
4377;SDS011;2203;53.686;9.994;2023-05-07T07:52:33;7.97;;;5.77;;
4377;SDS011;2203;53.686;9.994;2023-05-07T07:54:59;9.67;;;5.00;;
4377;SDS011;2203;53.686;9.994;2023-05-07T07:57:24;8.43;;;5.37;;
4377;SDS011;2203;53.686;9.994;2023-05-07T07:59:50;8.73;;;5.40;;
4377;SDS011;2203;53.686;9.994;2023-05-07T08:02:16;7.73;;;5.20;;
4377;SDS011;2203;53.686;9.994;2023-05-07T08:04:41;8.70;;;4.80;;
4377;SDS011;2203;53.686;9.994;2023-05-07T08:07:08;7.80;;;5.50;;
4377;SDS011;2203;53.686;9.994;2023-05-07T08:09:34;8.57;;;4.90;;
4377;SDS011;2203;53.686;9.994;2023-05-07T08:12:00;14.90;;;5.03;;
4377;SDS011;2203;53.686;9.994;2023-05-07T08:15:38;9.50;;;5.67;;
4377;SDS011;2203;53.686;9.994;2023-05-07T08:29:20;8.33;;;5.70;;
4377;SDS011;2203;53.686;9.994;2023-05-07T08:32:38;9.00;;;5.37;;
4377;SDS011;2203;53.686;9.994;2023-05-07T08:35:32;11.30;;;5.90;;
4377;SDS011;2203;53.686;9.994;2023-05-07T08:40:37;7.17;;;5.03;;
4377;SDS011;2203;53.686;9.994;2023-05-07T08:43:06;7.37;;;5.10;;
4377;SDS011;2203;53.686;9.994;2023-05-07T08:45:34;9.20;;;4.80;;
4377;SDS011;2203;53.686;9.994;2023-05-07T08:48:14;9.47;;;4.50;;
4377;SDS011;2203;53.686;9.994;2023-05-07T08:51:15;6.87;;;4.90;;
4377;SDS011;2203;53.686;9.994;2023-05-07T08:54:21;9.03;;;4.27;;
4377;SDS011;2203;53.686;9.994;2023-05-07T08:57:24;7.90;;;4.33;;
4377;SDS011;2203;53.686;9.994;2023-05-07T08:59:55;7.77;;;5.27;;
4377;SDS011;2203;53.686;9.994;2023-05-07T09:02:50;15.23;;;4.60;;
4377;SDS011;2203;53.686;9.994;2023-05-07T09:05:33;5.90;;;4.27;;
4377;SDS011;2203;53.686;9.994;2023-05-07T09:08:05;7.03;;;4.50;;
4377;SDS011;2203;53.686;9.994;2023-05-07T09:10:35;8.47;;;4.90;;
4377;SDS011;2203;53.686;9.994;2023-05-07T09:13:00;13.17;;;4.07;;
4377;SDS011;2203;53.686;9.994;2023-05-07T09:15:28;5.37;;;3.93;;
4377;SDS011;2203;53.686;9.994;2023-05-07T09:17:53;5.60;;;4.00;;
4377;SDS011;2203;53.686;9.994;2023-05-07T09:20:19;6.23;;;4.37;;
4377;SDS011;2203;53.686;9.994;2023-05-07T09:22:44;4.80;;;4.03;;
4377;SDS011;2203;53.686;9.994;2023-05-07T09:25:10;10.50;;;4.83;;
4377;SDS011;2203;53.686;9.994;2023-05-07T09:27:35;7.20;;;4.90;;
4377;SDS011;2203;53.686;9.994;2023-05-07T09:30:04;6.23;;;4.23;;
4377;SDS011;2203;53.686;9.994;2023-05-07T09:32:33;7.43;;;4.43;;
4377;SDS011;2203;53.686;9.994;2023-05-07T09:34:59;6.60;;;3.60;;
4377;SDS011;2203;53.686;9.994;2023-05-07T09:37:25;6.43;;;4.87;;
4377;SDS011;2203;53.686;9.994;2023-05-07T09:39:51;8.60;;;4.27;;
4377;SDS011;2203;53.686;9.994;2023-05-07T09:42:22;6.03;;;3.97;;
4377;SDS011;2203;53.686;9.994;2023-05-07T09:44:48;4.40;;;3.83;;
4377;SDS011;2203;53.686;9.994;2023-05-07T09:47:15;11.73;;;3.83;;
4377;SDS011;2203;53.686;9.994;2023-05-07T09:49:45;4.93;;;4.17;;
4377;SDS011;2203;53.686;9.994;2023-05-07T09:52:12;10.63;;;4.57;;
4377;SDS011;2203;53.686;9.994;2023-05-07T09:54:38;6.60;;;4.00;;
4377;SDS011;2203;53.686;9.994;2023-05-07T09:57:05;8.70;;;4.30;;
4377;SDS011;2203;53.686;9.994;2023-05-07T09:59:32;6.60;;;4.40;;
4377;SDS011;2203;53.686;9.994;2023-05-07T10:01:58;5.97;;;3.90;;
4377;SDS011;2203;53.686;9.994;2023-05-07T10:04:25;8.43;;;4.13;;
4377;SDS011;2203;53.686;9.994;2023-05-07T10:06:51;4.63;;;3.83;;
4377;SDS011;2203;53.686;9.994;2023-05-07T10:09:17;5.40;;;4.00;;
4377;SDS011;2203;53.686;9.994;2023-05-07T10:11:46;6.97;;;4.50;;
4377;SDS011;2203;53.686;9.994;2023-05-07T10:14:14;6.67;;;3.60;;
4377;SDS011;2203;53.686;9.994;2023-05-07T10:16:39;9.53;;;4.03;;
4377;SDS011;2203;53.686;9.994;2023-05-07T10:19:06;10.33;;;4.13;;
4377;SDS011;2203;53.686;9.994;2023-05-07T10:21:39;3.93;;;3.30;;
4377;SDS011;2203;53.686;9.994;2023-05-07T10:24:08;7.47;;;4.40;;
4377;SDS011;2203;53.686;9.994;2023-05-07T10:26:40;4.17;;;3.70;;
4377;SDS011;2203;53.686;9.994;2023-05-07T10:29:12;6.73;;;4.40;;
4377;SDS011;2203;53.686;9.994;2023-05-07T10:34:16;9.43;;;4.17;;
4377;SDS011;2203;53.686;9.994;2023-05-07T10:36:45;5.53;;;4.00;;
4377;SDS011;2203;53.686;9.994;2023-05-07T10:39:11;4.43;;;3.27;;
4377;SDS011;2203;53.686;9.994;2023-05-07T10:41:37;7.50;;;4.00;;
4377;SDS011;2203;53.686;9.994;2023-05-07T10:44:02;6.17;;;4.27;;
4377;SDS011;2203;53.686;9.994;2023-05-07T10:46:28;5.70;;;4.20;;
4377;SDS011;2203;53.686;9.994;2023-05-07T10:51:25;7.00;;;3.87;;
4377;SDS011;2203;53.686;9.994;2023-05-07T10:56:38;7.93;;;3.80;;
4377;SDS011;2203;53.686;9.994;2023-05-07T11:01:56;4.50;;;2.93;;
4377;SDS011;2203;53.686;9.994;2023-05-07T11:04:28;5.00;;;2.90;;
4377;SDS011;2203;53.686;9.994;2023-05-07T11:17:34;5.43;;;3.83;;
4377;SDS011;2203;53.686;9.994;2023-05-07T11:20:01;7.03;;;3.20;;
4377;SDS011;2203;53.686;9.994;2023-05-07T12:15:15;4.70;;;2.70;;
4377;SDS011;2203;53.686;9.994;2023-05-07T12:21:20;4.00;;;3.13;;
4377;SDS011;2203;53.686;9.994;2023-05-07T12:26:25;3.70;;;2.70;;
4377;SDS011;2203;53.686;9.994;2023-05-07T12:37:11;2.53;;;2.27;;
4377;SDS011;2203;53.686;9.994;2023-05-07T12:39:49;2.50;;;2.30;;
4377;SDS011;2203;53.686;9.994;2023-05-07T12:42:32;4.00;;;2.10;;
4377;SDS011;2203;53.686;9.994;2023-05-07T12:44:58;2.70;;;2.00;;
4377;SDS011;2203;53.686;9.994;2023-05-07T12:47:24;30.70;;;3.20;;
4377;SDS011;2203;53.686;9.994;2023-05-07T12:49:49;14.50;;;2.60;;
4377;SDS011;2203;53.686;9.994;2023-05-07T12:52:15;6.47;;;2.27;;
4377;SDS011;2203;53.686;9.994;2023-05-07T12:54:40;4.07;;;2.87;;
4377;SDS011;2203;53.686;9.994;2023-05-07T12:57:06;3.10;;;2.80;;
4377;SDS011;2203;53.686;9.994;2023-05-07T12:59:36;2.30;;;2.10;;
4377;SDS011;2203;53.686;9.994;2023-05-07T13:11:26;2.37;;;1.83;;
4377;SDS011;2203;53.686;9.994;2023-05-07T13:13:51;6.50;;;2.13;;
4377;SDS011;2203;53.686;9.994;2023-05-07T13:16:16;2.87;;;1.87;;
4377;SDS011;2203;53.686;9.994;2023-05-07T13:18:42;3.17;;;2.10;;
4377;SDS011;2203;53.686;9.994;2023-05-07T13:21:10;3.63;;;2.50;;
4377;SDS011;2203;53.686;9.994;2023-05-07T13:23:38;7.70;;;2.10;;
4377;SDS011;2203;53.686;9.994;2023-05-07T13:26:03;3.40;;;2.30;;
4377;SDS011;2203;53.686;9.994;2023-05-07T13:28:28;4.30;;;1.83;;
4377;SDS011;2203;53.686;9.994;2023-05-07T13:30:54;4.10;;;1.80;;
4377;SDS011;2203;53.686;9.994;2023-05-07T13:33:20;2.80;;;2.00;;
4377;SDS011;2203;53.686;9.994;2023-05-07T13:35:45;2.27;;;1.97;;
4377;SDS011;2203;53.686;9.994;2023-05-07T13:38:10;2.03;;;1.83;;
4377;SDS011;2203;53.686;9.994;2023-05-07T13:40:36;3.73;;;1.60;;
4377;SDS011;2203;53.686;9.994;2023-05-07T13:50:52;6.40;;;2.30;;
4377;SDS011;2203;53.686;9.994;2023-05-07T13:53:20;2.37;;;1.83;;
4377;SDS011;2203;53.686;9.994;2023-05-07T13:55:46;2.53;;;1.80;;
4377;SDS011;2203;53.686;9.994;2023-05-07T13:58:11;4.87;;;1.50;;
4377;SDS011;2203;53.686;9.994;2023-05-07T14:00:37;2.10;;;1.57;;
4377;SDS011;2203;53.686;9.994;2023-05-07T14:03:03;4.80;;;2.20;;
4377;SDS011;2203;53.686;9.994;2023-05-07T14:05:29;19.53;;;3.20;;
4377;SDS011;2203;53.686;9.994;2023-05-07T14:07:56;2.70;;;1.67;;
4377;SDS011;2203;53.686;9.994;2023-05-07T14:10:22;2.30;;;1.80;;
4377;SDS011;2203;53.686;9.994;2023-05-07T14:12:47;2.53;;;1.53;;
4377;SDS011;2203;53.686;9.994;2023-05-07T14:15:13;2.03;;;1.80;;
4377;SDS011;2203;53.686;9.994;2023-05-07T14:17:38;1.90;;;1.77;;
4377;SDS011;2203;53.686;9.994;2023-05-07T14:20:04;2.13;;;1.80;;
4377;SDS011;2203;53.686;9.994;2023-05-07T14:25:08;5.40;;;1.90;;
4377;SDS011;2203;53.686;9.994;2023-05-07T14:27:35;2.20;;;1.90;;
4377;SDS011;2203;53.686;9.994;2023-05-07T14:30:00;2.10;;;1.77;;
4377;SDS011;2203;53.686;9.994;2023-05-07T14:37:58;5.70;;;2.07;;
4377;SDS011;2203;53.686;9.994;2023-05-07T14:40:23;1.80;;;1.60;;
4377;SDS011;2203;53.686;9.994;2023-05-07T14:42:48;1.97;;;1.47;;
4377;SDS011;2203;53.686;9.994;2023-05-07T14:45:13;2.80;;;1.50;;
4377;SDS011;2203;53.686;9.994;2023-05-07T14:47:39;1.97;;;1.80;;
4377;SDS011;2203;53.686;9.994;2023-05-07T14:50:04;3.27;;;1.70;;
4377;SDS011;2203;53.686;9.994;2023-05-07T14:52:30;1.87;;;1.73;;
4377;SDS011;2203;53.686;9.994;2023-05-07T14:54:55;2.03;;;1.83;;
4377;SDS011;2203;53.686;9.994;2023-05-07T14:57:21;2.80;;;2.07;;
4377;SDS011;2203;53.686;9.994;2023-05-07T14:59:46;8.93;;;2.10;;
4377;SDS011;2203;53.686;9.994;2023-05-07T15:04:43;3.00;;;1.83;;
4377;SDS011;2203;53.686;9.994;2023-05-07T15:07:12;3.97;;;1.67;;
4377;SDS011;2203;53.686;9.994;2023-05-07T15:09:40;2.03;;;1.40;;
4377;SDS011;2203;53.686;9.994;2023-05-07T15:14:41;6.63;;;1.80;;
4377;SDS011;2203;53.686;9.994;2023-05-07T15:17:07;6.10;;;2.60;;
4377;SDS011;2203;53.686;9.994;2023-05-07T15:19:32;5.13;;;2.77;;
4377;SDS011;2203;53.686;9.994;2023-05-07T15:21:58;2.90;;;2.10;;
4377;SDS011;2203;53.686;9.994;2023-05-07T15:24:27;2.30;;;2.10;;
4377;SDS011;2203;53.686;9.994;2023-05-07T15:26:53;4.60;;;2.00;;
4377;SDS011;2203;53.686;9.994;2023-05-07T15:29:18;1.97;;;1.53;;
4377;SDS011;2203;53.686;9.994;2023-05-07T15:31:44;1.83;;;1.63;;
4377;SDS011;2203;53.686;9.994;2023-05-07T15:34:09;3.43;;;1.93;;
4377;SDS011;2203;53.686;9.994;2023-05-07T15:36:35;2.57;;;2.17;;
4377;SDS011;2203;53.686;9.994;2023-05-07T15:39:00;3.37;;;2.37;;
4377;SDS011;2203;53.686;9.994;2023-05-07T15:41:27;1.60;;;1.50;;
4377;SDS011;2203;53.686;9.994;2023-05-07T15:43:53;3.20;;;1.70;;
4377;SDS011;2203;53.686;9.994;2023-05-07T15:46:18;1.70;;;1.60;;
4377;SDS011;2203;53.686;9.994;2023-05-07T15:48:45;2.10;;;1.80;;
4377;SDS011;2203;53.686;9.994;2023-05-07T15:51:10;3.77;;;2.30;;
4377;SDS011;2203;53.686;9.994;2023-05-07T15:53:37;3.87;;;1.97;;
4377;SDS011;2203;53.686;9.994;2023-05-07T15:56:02;2.20;;;1.90;;
4377;SDS011;2203;53.686;9.994;2023-05-07T15:58:28;2.97;;;1.80;;
4377;SDS011;2203;53.686;9.994;2023-05-07T16:00:53;2.63;;;2.40;;
4377;SDS011;2203;53.686;9.994;2023-05-07T16:03:20;3.13;;;1.77;;
4377;SDS011;2203;53.686;9.994;2023-05-07T16:05:46;1.83;;;1.73;;
4377;SDS011;2203;53.686;9.994;2023-05-07T16:08:12;3.10;;;2.30;;
4377;SDS011;2203;53.686;9.994;2023-05-07T16:10:38;2.53;;;2.20;;
4377;SDS011;2203;53.686;9.994;2023-05-07T16:13:03;4.60;;;2.23;;
4377;SDS011;2203;53.686;9.994;2023-05-07T16:15:28;2.23;;;2.03;;
4377;SDS011;2203;53.686;9.994;2023-05-07T16:17:54;6.13;;;2.30;;
4377;SDS011;2203;53.686;9.994;2023-05-07T16:20:30;2.07;;;1.97;;
4377;SDS011;2203;53.686;9.994;2023-05-07T16:22:56;2.80;;;1.93;;
4377;SDS011;2203;53.686;9.994;2023-05-07T16:25:24;2.73;;;2.30;;
4377;SDS011;2203;53.686;9.994;2023-05-07T16:27:51;3.17;;;2.30;;
4377;SDS011;2203;53.686;9.994;2023-05-07T16:30:17;5.60;;;2.50;;
4377;SDS011;2203;53.686;9.994;2023-05-07T16:32:42;6.33;;;2.40;;
4377;SDS011;2203;53.686;9.994;2023-05-07T16:35:08;2.27;;;1.70;;
4377;SDS011;2203;53.686;9.994;2023-05-07T16:37:33;2.33;;;2.10;;
4377;SDS011;2203;53.686;9.994;2023-05-07T16:39:59;3.17;;;2.00;;
4377;SDS011;2203;53.686;9.994;2023-05-07T16:42:26;3.80;;;2.10;;
4377;SDS011;2203;53.686;9.994;2023-05-07T16:44:52;5.43;;;2.00;;
4377;SDS011;2203;53.686;9.994;2023-05-07T16:47:18;4.60;;;2.40;;
4377;SDS011;2203;53.686;9.994;2023-05-07T16:49:44;3.60;;;1.90;;
4377;SDS011;2203;53.686;9.994;2023-05-07T16:52:09;3.33;;;1.90;;
4377;SDS011;2203;53.686;9.994;2023-05-07T16:54:35;2.23;;;1.90;;
4377;SDS011;2203;53.686;9.994;2023-05-07T16:57:03;3.77;;;2.40;;
4377;SDS011;2203;53.686;9.994;2023-05-07T16:59:28;4.17;;;2.13;;
4377;SDS011;2203;53.686;9.994;2023-05-07T17:01:56;4.53;;;1.80;;
4377;SDS011;2203;53.686;9.994;2023-05-07T17:04:22;2.30;;;2.10;;
4377;SDS011;2203;53.686;9.994;2023-05-07T17:06:47;2.90;;;1.80;;
4377;SDS011;2203;53.686;9.994;2023-05-07T17:09:12;4.47;;;1.83;;
4377;SDS011;2203;53.686;9.994;2023-05-07T17:11:38;2.80;;;2.07;;
4377;SDS011;2203;53.686;9.994;2023-05-07T17:14:03;3.97;;;1.80;;
4377;SDS011;2203;53.686;9.994;2023-05-07T17:16:29;2.03;;;1.80;;
4377;SDS011;2203;53.686;9.994;2023-05-07T17:18:54;4.70;;;2.23;;